createdAt,value
2019-04-01T00:00:30.631Z,100.0
2019-04-01T00:01:32.115Z,100.0
2019-04-01T00:02:33.640Z,100.0
2019-04-01T00:03:35.170Z,100.0
2019-04-01T00:04:36.717Z,100.0
2019-04-01T00:05:38.287Z,100.0
2019-04-01T00:06:40.111Z,100.0
2019-04-01T00:07:41.777Z,100.0
2019-04-01T00:08:43.389Z,100.0
2019-04-01T00:09:45.069Z,100.0
2019-04-01T00:10:46.587Z,100.0
2019-04-01T00:11:48.327Z,100.0
2019-04-01T00:12:49.954Z,100.0
2019-04-01T00:13:51.495Z,100.0
2019-04-01T00:14:53.026Z,100.0
2019-04-01T00:15:54.678Z,100.0
2019-04-01T00:16:56.280Z,100.0
2019-04-01T00:17:58.008Z,100.0
2019-04-01T00:19:03.190Z,100.0
2019-04-01T00:20:01.316Z,100.0
2019-04-01T00:21:02.938Z,100.0
2019-04-01T00:22:04.607Z,100.0
2019-04-01T00:23:06.389Z,100.0
2019-04-01T00:24:07.806Z,100.0
2019-04-01T00:25:09.394Z,100.0
2019-04-01T00:26:11.210Z,100.0
2019-04-01T00:27:12.879Z,100.0
2019-04-01T00:28:14.509Z,100.0
2019-04-01T00:29:16.321Z,100.0
2019-04-01T00:30:17.954Z,100.0
2019-04-01T00:31:19.555Z,100.0
2019-04-01T00:32:21.207Z,100.0
2019-04-01T00:33:22.792Z,100.0
2019-04-01T00:34:24.375Z,100.0
2019-04-01T00:35:26.449Z,100.0
2019-04-01T00:36:28.084Z,100.0
2019-04-01T00:37:29.737Z,100.0
2019-04-01T00:38:31.588Z,100.0
2019-04-01T00:39:33.114Z,100.0
2019-04-01T00:40:35.166Z,100.0
2019-04-01T00:41:36.779Z,100.0
2019-04-01T00:42:38.506Z,100.0
2019-04-01T00:43:40.099Z,100.0
2019-04-01T00:44:41.794Z,100.0
2019-04-01T00:45:43.388Z,100.0
2019-04-01T00:46:45.247Z,100.0
2019-04-01T00:47:46.829Z,100.0
2019-04-01T00:48:48.645Z,100.0
2019-04-01T00:49:50.269Z,100.0
2019-04-01T00:50:52.096Z,100.0
2019-04-01T00:51:53.721Z,100.0
2019-04-01T00:52:55.419Z,100.0
2019-04-01T00:53:57.032Z,100.0
2019-04-01T00:54:58.759Z,100.0
2019-04-01T00:56:00.532Z,100.0
2019-04-01T00:57:02.126Z,100.0
2019-04-01T00:58:03.712Z,100.0
2019-04-01T00:59:05.530Z,100.0
2019-04-01T01:00:07.170Z,100.0
2019-04-01T01:01:08.751Z,100.0
2019-04-01T01:02:10.651Z,100.0
2019-04-01T01:03:12.195Z,100.0
2019-04-01T01:04:13.857Z,100.0
2019-04-01T01:05:15.508Z,100.0
2019-04-01T01:06:17.206Z,100.0
2019-04-01T01:07:19.006Z,100.0
2019-04-01T01:08:20.620Z,100.0
2019-04-01T01:09:22.297Z,100.0
2019-04-01T01:10:23.932Z,100.0
2019-04-01T01:11:25.585Z,100.0
2019-04-01T01:12:27.142Z,100.0
2019-04-01T01:13:28.917Z,100.0
2019-04-01T01:14:30.556Z,100.0
2019-04-01T01:15:32.115Z,100.0
2019-04-01T01:16:33.806Z,100.0
2019-04-01T01:17:35.311Z,100.0
2019-04-01T01:18:36.933Z,100.0
2019-04-01T01:19:38.504Z,100.0
2019-04-01T01:20:40.087Z,100.0
2019-04-01T01:21:41.861Z,100.0
2019-04-01T01:22:43.493Z,100.0
2019-04-01T01:23:45.117Z,100.0
2019-04-01T01:24:46.708Z,100.0
2019-04-01T01:25:48.421Z,100.0
2019-04-01T01:26:50.015Z,100.0
2019-04-01T01:27:51.738Z,100.0
2019-04-01T01:28:53.340Z,100.0
2019-04-01T01:29:55.058Z,100.0
2019-04-01T01:30:56.896Z,100.0
2019-04-01T01:31:58.528Z,100.0
2019-04-01T01:33:00.127Z,100.0
2019-04-01T01:34:01.831Z,100.0
2019-04-01T01:35:03.415Z,100.0
2019-04-01T01:36:05.001Z,100.0
2019-04-01T01:37:06.749Z,100.0
2019-04-01T01:38:08.330Z,100.0
2019-04-01T01:39:09.947Z,100.0
2019-04-01T01:40:11.714Z,100.0
2019-04-01T01:41:13.292Z,100.0
2019-04-01T01:42:14.941Z,100.0
2019-04-01T01:43:16.558Z,100.0
2019-04-01T01:44:18.338Z,100.0
2019-04-01T01:45:19.945Z,100.0
2019-04-01T01:46:21.852Z,100.0
2019-04-01T01:47:23.312Z,100.0
2019-04-01T01:48:25.036Z,100.0
2019-04-01T01:49:26.600Z,100.0
2019-04-01T01:50:28.302Z,100.0
2019-04-01T01:51:29.852Z,100.0
2019-04-01T01:52:31.605Z,100.0
2019-04-01T01:53:33.423Z,100.0
2019-04-01T01:54:35.197Z,100.0
2019-04-01T01:55:36.766Z,100.0
2019-04-01T01:56:38.398Z,100.0
2019-04-01T01:57:40.008Z,100.0
2019-04-01T01:58:41.688Z,100.0
2019-04-01T01:59:43.322Z,100.0
2019-04-01T02:00:45.045Z,100.0
2019-04-01T02:01:46.713Z,100.0
2019-04-01T02:02:48.503Z,100.0
2019-04-01T02:03:50.231Z,100.0
2019-04-01T02:04:51.798Z,100.0
2019-04-01T02:05:53.636Z,100.0
2019-04-01T02:06:55.224Z,100.0
2019-04-01T02:07:56.833Z,100.0
2019-04-01T02:08:58.607Z,100.0
2019-04-01T02:10:00.341Z,100.0
2019-04-01T02:11:01.871Z,100.0
2019-04-01T02:12:03.361Z,100.0
2019-04-01T02:13:05.056Z,100.0
2019-04-01T02:14:06.608Z,100.0
2019-04-01T02:15:08.253Z,100.0
2019-04-01T02:16:10.084Z,100.0
2019-04-01T02:17:11.655Z,100.0
2019-04-01T02:18:13.640Z,100.0
2019-04-01T02:19:15.421Z,100.0
2019-04-01T02:20:17.090Z,100.0
2019-04-01T02:21:18.726Z,100.0
2019-04-01T02:22:20.347Z,100.0
2019-04-01T02:23:21.919Z,100.0
2019-04-01T02:24:23.464Z,100.0
2019-04-01T02:25:25.273Z,100.0
2019-04-01T02:26:26.884Z,100.0
2019-04-01T02:27:28.580Z,100.0
2019-04-01T02:28:30.199Z,100.0
2019-04-01T02:29:31.904Z,100.0
2019-04-01T02:30:33.459Z,100.0
2019-04-01T02:31:35.177Z,100.0
2019-04-01T02:32:36.822Z,100.0
2019-04-01T02:33:38.379Z,100.0
2019-04-01T02:34:39.901Z,100.0
2019-04-01T02:35:41.530Z,100.0
2019-04-01T02:36:43.093Z,100.0
2019-04-01T02:37:44.481Z,100.0
2019-04-01T02:38:45.983Z,100.0
2019-04-01T02:39:47.508Z,100.0
2019-04-01T02:40:48.999Z,100.0
2019-04-01T02:41:50.874Z,100.0
2019-04-01T02:42:52.465Z,100.0
2019-04-01T02:43:54.224Z,100.0
2019-04-01T02:44:55.769Z,100.0
2019-04-01T02:45:57.375Z,100.0
2019-04-01T02:46:59.020Z,100.0
2019-04-01T02:48:00.607Z,100.0
2019-04-01T02:49:02.256Z,100.0
2019-04-01T02:50:03.886Z,100.0
2019-04-01T02:51:05.542Z,100.0
2019-04-01T02:52:07.143Z,100.0
2019-04-01T02:53:08.865Z,100.0
2019-04-01T02:54:10.421Z,100.0
2019-04-01T02:55:12.093Z,100.0
2019-04-01T02:56:13.854Z,100.0
2019-04-01T02:57:15.414Z,100.0
2019-04-01T02:58:16.985Z,100.0
2019-04-01T02:59:18.775Z,100.0
2019-04-01T03:00:20.320Z,100.0
2019-04-01T03:01:22.083Z,100.0
2019-04-01T03:02:23.697Z,100.0
2019-04-01T03:03:25.371Z,100.0
2019-04-01T03:04:26.970Z,100.0
2019-04-01T03:05:28.567Z,100.0
2019-04-01T03:06:30.198Z,100.0
2019-04-01T03:07:31.908Z,100.0
2019-04-01T03:08:33.553Z,100.0
2019-04-01T03:09:35.244Z,100.0
2019-04-01T03:10:36.842Z,100.0
2019-04-01T03:11:38.446Z,100.0
2019-04-01T03:12:40.165Z,100.0
2019-04-01T03:13:41.771Z,100.0
2019-04-01T03:14:43.452Z,100.0
2019-04-01T03:15:45.147Z,100.0
2019-04-01T03:16:46.624Z,100.0
2019-04-01T03:17:48.276Z,100.0
2019-04-01T03:18:49.961Z,100.0
2019-04-01T03:19:51.781Z,100.0
2019-04-01T03:20:53.396Z,100.0
2019-04-01T03:21:55.153Z,100.0
2019-04-01T03:22:56.800Z,100.0
2019-04-01T03:23:58.511Z,100.0
2019-04-01T03:25:00.129Z,100.0
2019-04-01T03:26:01.783Z,100.0
2019-04-01T03:27:03.541Z,100.0
2019-04-01T03:28:05.141Z,100.0
2019-04-01T03:29:06.770Z,100.0
2019-04-01T03:30:08.606Z,100.0
2019-04-01T03:31:10.247Z,100.0
2019-04-01T03:32:12.072Z,100.0
2019-04-01T03:33:13.659Z,100.0
2019-04-01T03:34:15.375Z,100.0
2019-04-01T03:35:16.992Z,100.0
2019-04-01T03:36:18.641Z,100.0
2019-04-01T03:37:20.489Z,100.0
2019-04-01T03:38:22.048Z,100.0
2019-04-01T03:39:23.680Z,100.0
2019-04-01T03:40:25.484Z,100.0
2019-04-01T03:41:27.090Z,100.0
2019-04-01T03:42:28.668Z,100.0
2019-04-01T03:43:30.411Z,100.0
2019-04-01T03:44:31.978Z,100.0
2019-04-01T03:45:33.647Z,100.0
2019-04-01T03:46:35.454Z,100.0
2019-04-01T03:47:37.067Z,100.0
2019-04-01T03:48:38.690Z,100.0
2019-04-01T03:49:40.754Z,100.0
2019-04-01T03:50:42.387Z,100.0
2019-04-01T03:51:44.036Z,100.0
2019-04-01T03:52:45.738Z,100.0
2019-04-01T03:53:47.369Z,100.0
2019-04-01T03:54:49.080Z,100.0
2019-04-01T03:55:50.661Z,100.0
2019-04-01T03:56:52.336Z,100.0
2019-04-01T03:57:53.924Z,100.0
2019-04-01T03:58:55.648Z,100.0
2019-04-01T03:59:57.200Z,100.0
2019-04-01T04:00:58.975Z,100.0
2019-04-01T04:02:00.458Z,100.0
2019-04-01T04:03:02.626Z,100.0
2019-04-01T04:04:04.334Z,100.0
2019-04-01T04:05:06.210Z,100.0
2019-04-01T04:06:07.814Z,100.0
2019-04-01T04:07:09.866Z,100.0
2019-04-01T04:08:11.556Z,100.0
2019-04-01T04:09:13.335Z,100.0
2019-04-01T04:10:15.006Z,100.0
2019-04-01T04:11:16.656Z,100.0
2019-04-01T04:12:18.556Z,100.0
2019-04-01T04:13:20.179Z,100.0
2019-04-01T04:14:21.604Z,100.0
2019-04-01T04:15:23.377Z,100.0
2019-04-01T04:16:24.967Z,100.0
2019-04-01T04:17:26.434Z,100.0
2019-04-01T04:18:28.179Z,100.0
2019-04-01T04:19:29.821Z,100.0
2019-04-01T04:20:31.371Z,100.0
2019-04-01T04:21:33.775Z,100.0
2019-04-01T04:22:35.357Z,100.0
2019-04-01T04:23:36.793Z,100.0
2019-04-01T04:24:38.867Z,100.0
2019-04-01T04:25:40.728Z,100.0
2019-04-01T04:26:42.186Z,100.0
2019-04-01T04:27:43.785Z,100.0
2019-04-01T04:28:45.206Z,100.0
2019-04-01T04:29:46.681Z,100.0
2019-04-01T04:30:48.305Z,100.0
2019-04-01T04:31:49.745Z,100.0
2019-04-01T04:32:51.178Z,100.0
2019-04-01T04:33:52.895Z,100.0
2019-04-01T04:34:57.173Z,100.0
2019-04-01T04:35:55.793Z,100.0
2019-04-01T04:36:57.387Z,100.0
2019-04-01T04:37:59.059Z,100.0
2019-04-01T04:39:00.489Z,100.0
2019-04-01T04:40:02.097Z,100.0
2019-04-01T04:41:03.495Z,100.0
2019-04-01T04:42:04.924Z,100.0
2019-04-01T04:43:06.422Z,100.0
2019-04-01T04:44:07.866Z,100.0
2019-04-01T04:45:09.687Z,100.0
2019-04-01T04:46:11.175Z,100.0
2019-04-01T04:47:12.963Z,100.0
2019-04-01T04:48:14.740Z,100.0
2019-04-01T04:49:16.345Z,100.0
2019-04-01T04:50:17.774Z,100.0
2019-04-01T04:51:19.336Z,100.0
2019-04-01T04:52:20.770Z,100.0
2019-04-01T04:53:22.465Z,100.0
2019-04-01T04:54:23.895Z,100.0
2019-04-01T04:55:25.928Z,100.0
2019-04-01T04:56:27.540Z,100.0
2019-04-01T04:57:29.293Z,100.0
2019-04-01T04:58:30.711Z,100.0
2019-04-01T04:59:32.608Z,100.0
2019-04-01T05:00:34.034Z,100.0
2019-04-01T05:01:35.462Z,100.0
2019-04-01T05:02:37.063Z,100.0
2019-04-01T05:03:38.544Z,100.0
2019-04-01T05:04:40.023Z,100.0
2019-04-01T05:05:41.609Z,100.0
2019-04-01T05:06:43.055Z,100.0
2019-04-01T05:07:44.521Z,100.0
2019-04-01T05:08:46.135Z,100.0
2019-04-01T05:09:47.613Z,100.0
2019-04-01T05:10:49.390Z,100.0
2019-04-01T05:11:51.077Z,100.0
2019-04-01T05:12:52.678Z,100.0
2019-04-01T05:13:54.103Z,100.0
2019-04-01T05:14:55.962Z,100.0
2019-04-01T05:15:57.428Z,100.0
2019-04-01T05:16:59.314Z,100.0
2019-04-01T05:18:00.906Z,100.0
2019-04-01T05:19:02.367Z,100.0
2019-04-01T05:20:03.791Z,100.0
2019-04-01T05:21:05.635Z,100.0
2019-04-01T05:22:07.082Z,100.0
2019-04-01T05:23:08.540Z,100.0
2019-04-01T05:24:10.177Z,100.0
2019-04-01T05:25:11.849Z,100.0
2019-04-01T05:26:13.716Z,100.0
2019-04-01T05:27:15.241Z,100.0
2019-04-01T05:28:16.718Z,100.0
2019-04-01T05:29:18.384Z,100.0
2019-04-01T05:30:19.982Z,100.0
2019-04-01T05:31:21.390Z,100.0
2019-04-01T05:32:23.090Z,100.0
2019-04-01T05:33:24.520Z,100.0
2019-04-01T05:34:25.960Z,100.0
2019-04-01T05:35:27.466Z,100.0
2019-04-01T05:36:28.892Z,100.0
2019-04-01T05:37:30.323Z,100.0
2019-04-01T05:38:31.984Z,100.0
2019-04-01T05:39:33.436Z,100.0
2019-04-01T05:40:35.062Z,100.0
2019-04-01T05:41:36.537Z,100.0
2019-04-01T05:42:38.293Z,100.0
2019-04-01T05:43:39.757Z,100.0
2019-04-01T05:44:41.450Z,100.0
2019-04-01T05:45:42.944Z,100.0
2019-04-01T05:46:44.515Z,100.0
2019-04-01T05:47:46.068Z,100.0
2019-04-01T05:48:47.506Z,100.0
2019-04-01T05:49:49.207Z,100.0
2019-04-01T05:50:50.616Z,100.0
2019-04-01T05:51:52.151Z,100.0
2019-04-01T05:52:53.582Z,100.0
2019-04-01T05:53:55.022Z,100.0
2019-04-01T05:54:56.655Z,100.0
2019-04-01T05:55:58.090Z,100.0
2019-04-01T05:56:59.521Z,100.0
2019-04-01T05:58:01.164Z,100.0
2019-04-01T05:59:02.609Z,100.0
2019-04-01T06:00:04.266Z,100.0
2019-04-01T06:01:05.881Z,100.0
2019-04-01T06:02:07.481Z,100.0
2019-04-01T06:03:09.164Z,100.0
2019-04-01T06:04:10.583Z,100.0
2019-04-01T06:05:12.000Z,100.0
2019-04-01T06:06:13.650Z,100.0
2019-04-01T06:07:15.097Z,100.0
2019-04-01T06:08:16.522Z,100.0
2019-04-01T06:09:18.248Z,100.0
2019-04-01T06:10:19.868Z,100.0
2019-04-01T06:11:21.234Z,100.0
2019-04-01T06:12:24.120Z,100.0
2019-04-01T06:13:24.611Z,100.0
2019-04-01T06:14:26.013Z,100.0
2019-04-01T06:15:27.515Z,100.0
2019-04-01T06:16:29.115Z,100.0
2019-04-01T06:17:30.543Z,100.0
2019-04-01T06:18:32.024Z,100.0
2019-04-01T06:19:33.680Z,100.0
2019-04-01T06:20:35.130Z,100.0
2019-04-01T06:21:36.792Z,100.0
2019-04-01T06:22:38.711Z,100.0
2019-04-01T06:23:40.118Z,100.0
2019-04-01T06:24:41.724Z,100.0
2019-04-01T06:25:43.430Z,100.0
2019-04-01T06:26:44.990Z,100.0
2019-04-01T06:27:46.647Z,100.0
2019-04-01T06:28:48.111Z,100.0
2019-04-01T06:29:50.006Z,100.0
2019-04-01T06:30:51.433Z,100.0
2019-04-01T06:31:52.875Z,100.0
2019-04-01T06:32:54.746Z,100.0
2019-04-01T06:33:56.263Z,100.0
2019-04-01T06:34:57.793Z,96.7
2019-04-01T06:35:59.521Z,92.4
2019-04-01T06:37:01.299Z,89.6
2019-04-01T06:38:02.892Z,84.7
2019-04-01T06:39:04.475Z,80.1
2019-04-01T06:40:06.550Z,74.8
2019-04-01T06:41:08.220Z,70.4
2019-04-01T06:42:09.921Z,65.4
2019-04-01T06:43:11.632Z,59.5
2019-04-01T06:44:13.281Z,55.6
2019-04-01T06:45:15.002Z,54.9
2019-04-01T06:46:16.589Z,54.4
2019-04-01T06:47:18.319Z,53.3
2019-04-01T06:48:20.034Z,51.7
2019-04-01T06:49:21.934Z,48.6
2019-04-01T06:50:23.677Z,45.8
2019-04-01T06:51:25.533Z,43.2
2019-04-01T06:52:27.195Z,40.9
2019-04-01T06:53:28.871Z,39.6
2019-04-01T06:54:31.245Z,38.8
2019-04-01T06:55:33.741Z,37.0
2019-04-01T06:56:35.102Z,36.4
2019-04-01T06:57:36.804Z,35.2
2019-04-01T06:58:38.527Z,34.1
2019-04-01T06:59:39.999Z,33.9
2019-04-01T07:00:41.618Z,33.3
2019-04-01T07:01:43.399Z,32.1
2019-04-01T07:02:44.869Z,32.1
2019-04-01T07:03:46.334Z,30.9
2019-04-01T07:04:47.923Z,30.0
2019-04-01T07:05:49.427Z,30.0
2019-04-01T07:06:50.869Z,29.6
2019-04-01T07:07:52.447Z,28.6
2019-04-01T07:08:53.876Z,28.1
2019-04-01T07:09:55.597Z,27.4
2019-04-01T07:10:57.061Z,27.1
2019-04-01T07:11:58.627Z,27.0
2019-04-01T07:13:00.086Z,28.6
2019-04-01T07:14:01.737Z,28.3
2019-04-01T07:15:03.201Z,27.6
2019-04-01T07:16:15.254Z,27.6
2019-04-01T07:17:06.229Z,27.2
2019-04-01T07:18:07.919Z,26.5
2019-04-01T07:19:09.378Z,26.1
2019-04-01T07:20:10.817Z,25.4
2019-04-01T07:21:12.422Z,24.8
2019-04-01T07:22:14.261Z,24.7
2019-04-01T07:23:15.740Z,24.4
2019-04-01T07:24:17.381Z,24.3
2019-04-01T07:25:18.847Z,23.9
2019-04-01T07:26:20.428Z,23.8
2019-04-01T07:27:21.898Z,23.1
2019-04-01T07:28:23.737Z,23.0
2019-04-01T07:29:25.187Z,22.6
2019-04-01T07:30:26.672Z,22.7
2019-04-01T07:31:28.239Z,23.4
2019-04-01T07:32:29.689Z,22.1
2019-04-01T07:33:31.154Z,22.0
2019-04-01T07:34:32.820Z,22.3
2019-04-01T07:35:34.276Z,22.7
2019-04-01T07:36:35.740Z,24.0
2019-04-01T07:37:37.310Z,24.6
2019-04-01T07:38:38.796Z,25.2
2019-04-01T07:39:40.255Z,26.3
2019-04-01T07:40:41.838Z,27.5
2019-04-01T07:41:43.280Z,28.5
2019-04-01T07:42:44.719Z,29.9
2019-04-01T07:43:46.751Z,31.8
2019-04-01T07:44:48.185Z,32.5
2019-04-01T07:45:49.876Z,33.9
2019-04-01T07:46:51.326Z,35.3
2019-04-01T07:47:52.915Z,35.7
2019-04-01T07:48:54.354Z,34.8
2019-04-01T07:49:56.018Z,33.4
2019-04-01T07:50:57.514Z,32.2
2019-04-01T07:51:59.120Z,31.5
2019-04-01T07:53:00.566Z,29.9
2019-04-01T07:54:02.172Z,29.8
2019-04-01T07:55:04.070Z,29.7
2019-04-01T07:56:05.652Z,30.0
2019-04-01T07:57:07.127Z,30.5
2019-04-01T07:58:08.750Z,29.8
2019-04-01T07:59:10.219Z,28.8
2019-04-01T08:00:11.673Z,28.6
2019-04-01T08:01:13.245Z,28.0
2019-04-01T08:02:14.659Z,27.9
2019-04-01T08:03:16.062Z,28.4
2019-04-01T08:04:17.562Z,28.9
2019-04-01T08:05:18.981Z,29.7
2019-04-01T08:06:20.475Z,30.9
2019-04-01T08:07:21.909Z,31.0
2019-04-01T08:08:23.332Z,31.9
2019-04-01T08:09:24.828Z,32.0
2019-04-01T08:10:26.269Z,32.0
2019-04-01T08:11:27.899Z,31.1
2019-04-01T08:12:29.377Z,29.5
2019-04-01T08:13:30.742Z,27.7
2019-04-01T08:14:32.469Z,27.2
2019-04-01T08:15:33.919Z,26.3
2019-04-01T08:16:35.540Z,27.0
2019-04-01T08:17:37.009Z,27.4
2019-04-01T08:18:38.697Z,28.2
2019-04-01T08:19:40.122Z,28.9
2019-04-01T08:20:41.725Z,29.3
2019-04-01T08:21:43.163Z,31.0
2019-04-01T08:22:44.769Z,30.9
2019-04-01T08:23:46.339Z,31.7
2019-04-01T08:24:47.814Z,31.9
2019-04-01T08:25:49.269Z,32.0
2019-04-01T08:26:50.936Z,32.4
2019-04-01T08:27:52.367Z,32.0
2019-04-01T08:28:54.203Z,32.3
2019-04-01T08:29:55.625Z,32.5
2019-04-01T08:30:57.075Z,33.3
2019-04-01T08:31:58.560Z,34.0
2019-04-01T08:33:00.031Z,34.9
2019-04-01T08:34:01.486Z,33.0
2019-04-01T08:35:03.073Z,32.6
2019-04-01T08:36:04.533Z,33.3
2019-04-01T08:37:06.077Z,32.7
2019-04-01T08:38:07.621Z,32.6
2019-04-01T08:39:09.208Z,32.9
2019-04-01T08:40:10.687Z,32.9
2019-04-01T08:41:12.132Z,32.0
2019-04-01T08:42:13.564Z,31.9
2019-04-01T08:43:15.211Z,31.6
2019-04-01T08:44:16.629Z,30.1
2019-04-01T08:45:18.106Z,30.5
2019-04-01T08:46:19.729Z,30.5
2019-04-01T08:47:21.190Z,29.7
2019-04-01T08:48:22.649Z,28.9
2019-04-01T08:49:24.245Z,27.9
2019-04-01T08:50:26.100Z,27.0
2019-04-01T08:51:27.557Z,24.8
2019-04-01T08:52:29.470Z,24.3
2019-04-01T08:53:30.809Z,23.7
2019-04-01T08:54:32.258Z,23.5
2019-04-01T08:55:33.721Z,23.8
2019-04-01T08:56:38.156Z,23.4
2019-04-01T08:57:36.809Z,22.4
2019-04-01T08:58:38.317Z,21.8
2019-04-01T08:59:40.017Z,21.1
2019-04-01T09:00:41.450Z,20.7
2019-04-01T09:01:43.083Z,21.2
2019-04-01T09:02:44.519Z,20.7
2019-04-01T09:03:46.196Z,19.9
2019-04-01T09:04:47.671Z,19.5
2019-04-01T09:05:49.315Z,18.5
2019-04-01T09:06:50.913Z,18.3
2019-04-01T09:07:52.425Z,18.7
2019-04-01T09:08:53.859Z,18.3
2019-04-01T09:09:55.846Z,18.7
2019-04-01T09:10:57.251Z,17.8
2019-04-01T09:11:58.715Z,17.5
2019-04-01T09:13:00.363Z,17.4
2019-04-01T09:14:01.861Z,17.4
2019-04-01T09:15:03.310Z,17.6
2019-04-01T09:16:04.904Z,17.4
2019-04-01T09:17:06.353Z,17.2
2019-04-01T09:18:07.775Z,16.9
2019-04-01T09:19:09.372Z,16.6
2019-04-01T09:20:10.808Z,17.6
2019-04-01T09:21:12.221Z,17.9
2019-04-01T09:22:13.701Z,18.3
2019-04-01T09:23:15.203Z,18.0
2019-04-01T09:24:16.841Z,16.7
2019-04-01T09:25:18.316Z,16.7
2019-04-01T09:26:19.934Z,16.9
2019-04-01T09:27:21.417Z,16.6
2019-04-01T09:28:23.026Z,16.7
2019-04-01T09:29:24.470Z,16.5
2019-04-01T09:30:25.892Z,17.3
2019-04-01T09:31:27.495Z,17.5
2019-04-01T09:32:29.066Z,16.6
2019-04-01T09:33:30.499Z,16.7
2019-04-01T09:34:32.223Z,17.7
2019-04-01T09:35:33.649Z,17.0
2019-04-01T09:36:35.067Z,15.8
2019-04-01T09:37:36.790Z,16.1
2019-04-01T09:38:38.187Z,16.6
2019-04-01T09:39:39.777Z,16.0
2019-04-01T09:40:41.525Z,15.7
2019-04-01T09:41:42.984Z,15.6
2019-04-01T09:42:44.438Z,16.4
2019-04-01T09:43:46.056Z,17.0
2019-04-01T09:44:47.491Z,16.2
2019-04-01T09:45:48.938Z,15.2
2019-04-01T09:46:50.590Z,14.8
2019-04-01T09:47:52.022Z,15.2
2019-04-01T09:48:53.664Z,15.9
2019-04-01T09:49:55.150Z,16.0
2019-04-01T09:50:56.767Z,16.1
2019-04-01T09:51:58.234Z,16.1
2019-04-01T09:52:59.846Z,16.6
2019-04-01T09:54:01.294Z,16.9
2019-04-01T09:55:05.882Z,16.6
2019-04-01T09:56:04.248Z,15.5
2019-04-01T09:57:16.716Z,15.4
2019-04-01T09:58:07.422Z,15.0
2019-04-01T09:59:09.057Z,14.3
2019-04-01T10:00:10.483Z,13.9
2019-04-01T10:01:11.939Z,14.9
2019-04-01T10:02:13.829Z,15.6
2019-04-01T10:03:15.273Z,16.4
2019-04-01T10:04:16.690Z,16.5
2019-04-01T10:05:18.298Z,16.9
2019-04-01T10:06:19.729Z,16.8
2019-04-01T10:07:21.432Z,17.5
2019-04-01T10:08:22.836Z,18.2
2019-04-01T10:09:24.515Z,17.7
2019-04-01T10:10:25.969Z,16.4
2019-04-01T10:11:27.459Z,16.7
2019-04-01T10:12:29.031Z,16.3
2019-04-01T10:13:30.505Z,16.0
2019-04-01T10:14:31.956Z,14.7
2019-04-01T10:15:33.569Z,16.1
2019-04-01T10:16:35.028Z,16.0
2019-04-01T10:17:36.656Z,15.9
2019-04-01T10:18:38.129Z,16.3
2019-04-01T10:19:39.815Z,16.5
2019-04-01T10:20:41.293Z,16.9
2019-04-01T10:21:45.259Z,15.0
2019-04-01T10:22:44.485Z,15.4
2019-04-01T10:23:46.170Z,15.9
2019-04-01T10:24:47.620Z,16.1
2019-04-01T10:25:51.375Z,15.7
2019-04-01T10:26:50.625Z,15.4
2019-04-01T10:27:52.072Z,15.8
2019-04-01T10:28:53.543Z,16.0
2019-04-01T10:29:55.199Z,16.4
2019-04-01T10:30:56.665Z,16.2
2019-04-01T10:31:58.109Z,16.2
2019-04-01T10:33:02.108Z,15.3
2019-04-01T10:34:01.160Z,14.8
2019-04-01T10:35:02.807Z,13.7
2019-04-01T10:36:04.238Z,13.1
2019-04-01T10:37:05.704Z,12.9
2019-04-01T10:38:07.285Z,12.1
2019-04-01T10:39:08.780Z,12.0
2019-04-01T10:40:10.238Z,11.9
2019-04-01T10:41:11.859Z,11.9
2019-04-01T10:42:13.328Z,11.5
2019-04-01T10:43:14.940Z,11.7
2019-04-01T10:44:16.383Z,11.4
2019-04-01T10:45:18.024Z,12.1
2019-04-01T10:46:19.465Z,12.8
2019-04-01T10:47:20.914Z,12.6
2019-04-01T10:48:22.577Z,13.6
2019-04-01T10:49:24.011Z,14.0
2019-04-01T10:50:25.474Z,14.1
2019-04-01T10:51:27.070Z,13.6
2019-04-01T10:52:28.506Z,14.6
2019-04-01T10:53:30.179Z,15.2
2019-04-01T10:54:31.651Z,15.4
2019-04-01T10:55:33.319Z,15.0
2019-04-01T10:56:35.880Z,15.9
2019-04-01T10:57:36.177Z,16.0
2019-04-01T10:58:37.897Z,15.3
2019-04-01T10:59:39.412Z,14.3
2019-04-01T11:00:40.892Z,14.9
2019-04-01T11:01:42.505Z,13.8
2019-04-01T11:02:44.057Z,13.6
2019-04-01T11:03:45.526Z,14.0
2019-04-01T11:04:47.219Z,14.5
2019-04-01T11:05:49.180Z,14.1
2019-04-01T11:06:50.507Z,14.5
2019-04-01T11:07:52.224Z,14.8
2019-04-01T11:08:53.610Z,14.8
2019-04-01T11:09:55.040Z,15.1
2019-04-01T11:10:56.643Z,16.4
2019-04-01T11:11:58.085Z,18.3
2019-04-01T11:12:59.731Z,20.2
2019-04-01T11:14:01.159Z,21.9
2019-04-01T11:15:02.808Z,24.4
2019-04-01T11:16:04.236Z,26.7
2019-04-01T11:17:05.802Z,27.5
2019-04-01T11:18:07.322Z,28.6
2019-04-01T11:19:09.991Z,28.9
2019-04-01T11:20:10.219Z,29.4
2019-04-01T11:21:11.956Z,29.6
2019-04-01T11:22:13.429Z,30.7
2019-04-01T11:23:15.183Z,31.0
2019-04-01T11:24:16.873Z,31.1
2019-04-01T11:25:18.498Z,31.6
2019-04-01T11:26:19.955Z,32.0
2019-04-01T11:27:21.428Z,31.4
2019-04-01T11:28:22.987Z,30.3
2019-04-01T11:29:25.761Z,31.5
2019-04-01T11:30:25.935Z,31.1
2019-04-01T11:31:27.527Z,31.0
2019-04-01T11:32:28.979Z,32.3
2019-04-01T11:33:30.389Z,32.4
2019-04-01T11:34:32.036Z,33.2
2019-04-01T11:35:33.520Z,33.4
2019-04-01T11:36:34.920Z,34.0
2019-04-01T11:37:36.602Z,34.6
2019-04-01T11:38:38.050Z,34.9
2019-04-01T11:39:39.530Z,35.2
2019-04-01T11:40:41.107Z,35.4
2019-04-01T11:41:42.514Z,34.8
2019-04-01T11:42:43.856Z,34.8
2019-04-01T11:43:45.481Z,34.7
2019-04-01T11:44:46.920Z,35.2
2019-04-01T11:45:48.363Z,35.5
2019-04-01T11:46:49.970Z,36.3
2019-04-01T11:47:51.367Z,35.7
2019-04-01T11:48:53.052Z,36.3
2019-04-01T11:49:54.506Z,37.3
2019-04-01T11:50:56.114Z,38.2
2019-04-01T11:51:57.561Z,38.9
2019-04-01T11:52:58.981Z,38.3
2019-04-01T11:54:00.612Z,39.0
2019-04-01T11:55:02.032Z,39.0
2019-04-01T11:56:03.488Z,39.2
2019-04-01T11:57:05.140Z,39.8
2019-04-01T11:58:06.546Z,39.7
2019-04-01T11:59:08.458Z,40.1
2019-04-01T12:00:12.521Z,39.4
2019-04-01T12:01:10.821Z,39.3
2019-04-01T12:02:12.230Z,39.4
2019-04-01T12:03:13.776Z,40.4
2019-04-01T12:04:15.184Z,40.3
2019-04-01T12:05:16.593Z,41.7
2019-04-01T12:06:18.302Z,41.7
2019-04-01T12:07:19.706Z,43.1
2019-04-01T12:08:21.109Z,42.7
2019-04-01T12:09:22.645Z,42.2
2019-04-01T12:10:24.051Z,42.1
2019-04-01T12:11:25.458Z,42.3
2019-04-01T12:12:27.154Z,41.5
2019-04-01T12:13:29.023Z,42.4
2019-04-01T12:14:29.936Z,43.0
2019-04-01T12:15:31.476Z,42.6
2019-04-01T12:16:32.878Z,42.8
2019-04-01T12:17:34.288Z,42.5
2019-04-01T12:18:35.999Z,42.9
2019-04-01T12:19:37.407Z,43.1
2019-04-01T12:20:39.328Z,42.5
2019-04-01T12:21:41.580Z,42.6
2019-04-01T12:22:45.483Z,43.0
2019-04-01T12:23:43.772Z,42.5
2019-04-01T12:24:45.466Z,42.7
2019-04-01T12:25:46.872Z,42.2
2019-04-01T12:26:48.545Z,42.2
2019-04-01T12:27:49.952Z,43.1
2019-04-01T12:28:51.630Z,43.8
2019-04-01T12:29:53.038Z,43.0
2019-04-01T12:30:54.718Z,43.2
2019-04-01T12:31:59.414Z,43.0
2019-04-01T12:32:57.492Z,44.7
2019-04-01T12:33:59.037Z,43.2
2019-04-01T12:35:00.529Z,42.8
2019-04-01T12:36:01.810Z,45.2
2019-04-01T12:37:03.387Z,43.9
2019-04-01T12:38:04.795Z,43.2
2019-04-01T12:39:06.195Z,44.2
2019-04-01T12:40:07.886Z,44.3
2019-04-01T12:41:09.292Z,44.0
2019-04-01T12:42:10.793Z,43.6
2019-04-01T12:43:12.207Z,43.2
2019-04-01T12:44:13.609Z,43.2
2019-04-01T12:45:15.016Z,43.5
2019-04-01T12:46:16.530Z,43.9
2019-04-01T12:47:17.932Z,44.1
2019-04-01T12:48:19.338Z,44.4
2019-04-01T12:49:20.851Z,44.1
2019-04-01T12:50:22.253Z,45.6
2019-04-01T12:51:23.935Z,46.2
2019-04-01T12:52:25.340Z,45.9
2019-04-01T12:53:26.747Z,45.4
2019-04-01T12:54:28.258Z,46.0
2019-04-01T12:55:29.663Z,45.1
2019-04-01T12:56:31.040Z,44.8
2019-04-01T12:57:32.578Z,45.3
2019-04-01T12:58:33.981Z,45.8
2019-04-01T12:59:35.386Z,45.6
2019-04-01T13:00:36.901Z,46.2
2019-04-01T13:01:38.306Z,47.0
2019-04-01T13:02:39.770Z,45.8
2019-04-01T13:03:41.426Z,45.7
2019-04-01T13:04:42.828Z,44.7
2019-04-01T13:05:44.233Z,44.8
2019-04-01T13:06:45.748Z,45.3
2019-04-01T13:07:47.151Z,46.0
2019-04-01T13:08:48.556Z,46.3
2019-04-01T13:09:50.834Z,44.9
2019-04-01T13:10:51.437Z,46.2
2019-04-01T13:11:52.951Z,46.8
2019-04-01T13:12:54.541Z,46.4
2019-04-01T13:13:55.842Z,46.1
2019-04-01T13:14:57.236Z,46.5
2019-04-01T13:15:58.918Z,45.9
2019-04-01T13:17:00.321Z,46.2
2019-04-01T13:18:03.076Z,46.4
2019-04-01T13:19:04.430Z,46.1
2019-04-01T13:20:06.113Z,45.8
2019-04-01T13:21:07.515Z,47.4
2019-04-01T13:22:09.483Z,47.4
2019-04-01T13:23:10.559Z,47.3
2019-04-01T13:24:12.079Z,46.8
2019-04-01T13:25:13.481Z,46.4
2019-04-01T13:26:15.172Z,46.7